createdAt,value
2022-08-08T00:00:50.250Z,0.00
2022-08-08T00:00:55.475Z,0.00
2022-08-08T00:02:03.921Z,0.00
2022-08-08T00:02:38.420Z,0.00
2022-08-08T00:03:37.580Z,0.00
2022-08-08T00:04:37.792Z,0.00
2022-08-08T00:05:44.026Z,0.00
2022-08-08T00:06:39.130Z,0.00
2022-08-08T00:07:38.274Z,0.00
2022-08-08T00:08:38.438Z,0.00
2022-08-08T00:09:38.595Z,0.00
2022-08-08T00:10:38.753Z,0.00
2022-08-08T00:11:46.770Z,0.00
2022-08-08T00:12:40.130Z,0.00
2022-08-08T00:14:17.549Z,0.00
2022-08-08T00:14:59.042Z,0.00
2022-08-08T00:15:56.549Z,0.00
2022-08-08T00:16:40.805Z,0.00
2022-08-08T00:17:58.787Z,0.00
2022-08-08T00:18:41.169Z,0.00
2022-08-08T00:19:40.336Z,0.00
2022-08-08T00:20:41.535Z,0.00
2022-08-08T00:21:43.851Z,0.00
2022-08-08T00:22:40.848Z,0.00
2022-08-08T00:23:43.009Z,0.00
2022-08-08T00:24:41.188Z,0.00
2022-08-08T00:25:46.567Z,0.00
2022-08-08T00:26:42.528Z,0.00
2022-08-08T00:27:42.218Z,0.00
2022-08-08T00:28:41.880Z,0.00
2022-08-08T00:29:45.926Z,0.00
2022-08-08T00:30:45.198Z,0.00
2022-08-08T00:32:20.810Z,0.00
2022-08-08T00:32:44.876Z,0.00
2022-08-08T00:34:17.939Z,0.00
2022-08-08T00:34:45.162Z,0.00
2022-08-08T00:35:43.082Z,0.00
2022-08-08T00:36:44.242Z,0.00
2022-08-08T00:37:47.743Z,0.00
2022-08-08T00:38:54.687Z,0.00
2022-08-08T00:41:07.326Z,0.00
2022-08-08T00:41:07.546Z,0.00
2022-08-08T00:42:08.241Z,0.00
2022-08-08T00:42:45.387Z,0.00
2022-08-08T00:43:46.334Z,0.00
2022-08-08T00:44:45.606Z,0.00
2022-08-08T00:45:44.799Z,0.00
2022-08-08T00:46:56.133Z,0.00
2022-08-08T00:48:01.941Z,0.00
2022-08-08T00:48:59.058Z,0.00
2022-08-08T00:49:59.055Z,0.00
2022-08-08T00:50:52.498Z,0.00
2022-08-08T00:51:46.859Z,0.00
2022-08-08T00:52:48.497Z,0.00
2022-08-08T00:53:56.999Z,0.00
2022-08-08T00:54:47.398Z,0.00
2022-08-08T00:55:53.738Z,0.00
2022-08-08T00:56:47.749Z,0.00
2022-08-08T00:57:48.599Z,0.00
2022-08-08T00:58:54.673Z,0.00
2022-08-08T00:59:48.276Z,0.00
2022-08-08T01:00:47.469Z,0.00
2022-08-08T01:01:47.689Z,0.00
2022-08-08T01:04:00.237Z,0.00
2022-08-08T01:04:01.558Z,0.00
2022-08-08T01:04:49.174Z,0.00
2022-08-08T01:05:59.253Z,0.00
2022-08-08T01:06:49.536Z,0.00
2022-08-08T01:07:55.779Z,0.00
2022-08-08T01:08:51.895Z,0.00
2022-08-08T01:09:49.075Z,0.00
2022-08-08T01:10:50.898Z,0.00
2022-08-08T01:11:52.099Z,0.00
2022-08-08T01:12:49.559Z,0.00
2022-08-08T01:13:53.018Z,0.00
2022-08-08T01:14:54.929Z,0.00
2022-08-08T01:15:54.576Z,0.00
2022-08-08T01:16:50.227Z,0.00
2022-08-08T01:17:53.784Z,0.00
2022-08-08T01:18:54.092Z,0.00
2022-08-08T01:20:02.021Z,0.00
2022-08-08T01:20:51.910Z,0.00
2022-08-08T01:22:12.046Z,0.00
2022-08-08T01:22:52.300Z,0.00
2022-08-08T01:24:06.050Z,0.00
2022-08-08T01:24:53.829Z,0.00
2022-08-08T01:25:54.083Z,0.00
2022-08-08T01:26:51.980Z,0.00
2022-08-08T01:27:52.150Z,0.00
2022-08-08T01:28:53.351Z,0.00
2022-08-08T01:29:59.802Z,0.00
2022-08-08T01:30:54.072Z,0.00
2022-08-08T01:32:15.007Z,0.00
2022-08-08T01:32:54.013Z,0.00
2022-08-08T01:34:00.000Z,0.00
2022-08-08T01:34:54.357Z,0.00
2022-08-08T01:35:53.543Z,0.00
2022-08-08T01:36:54.741Z,0.00
2022-08-08T01:37:57.560Z,0.00
2022-08-08T01:38:55.094Z,0.00
2022-08-08T01:39:54.322Z,0.00
2022-08-08T01:40:54.456Z,0.00
2022-08-08T01:41:54.630Z,0.00
2022-08-08T01:42:54.806Z,0.00
2022-08-08T01:43:54.965Z,0.00
2022-08-08T01:44:55.146Z,0.00
2022-08-08T01:45:56.475Z,0.00
2022-08-08T01:46:55.507Z,0.00
2022-08-08T01:48:16.812Z,0.00
2022-08-08T01:48:56.902Z,0.00
2022-08-08T01:49:58.906Z,0.00
2022-08-08T01:50:56.239Z,0.00
2022-08-08T01:52:42.212Z,0.00
2022-08-08T01:55:16.433Z,0.00
2022-08-08T01:55:16.810Z,0.00
2022-08-08T01:55:25.600Z,0.00
2022-08-08T01:56:29.877Z,0.00
2022-08-08T01:56:58.244Z,0.00
2022-08-08T01:58:12.237Z,0.00
2022-08-08T01:58:58.623Z,0.00
2022-08-08T02:00:02.383Z,0.00
2022-08-08T02:00:58.999Z,0.00
2022-08-08T02:02:02.875Z,0.00
2022-08-08T02:02:59.335Z,0.00
2022-08-08T02:03:58.521Z,0.00
2022-08-08T02:04:58.678Z,0.00
2022-08-08T02:05:59.366Z,0.00
2022-08-08T02:06:59.006Z,0.00
2022-08-08T02:07:59.206Z,0.00
2022-08-08T02:08:59.347Z,0.00
2022-08-08T02:10:04.164Z,0.00
2022-08-08T02:11:00.685Z,0.00
2022-08-08T02:12:00.843Z,0.00
2022-08-08T02:13:00.068Z,0.00
2022-08-08T02:14:00.238Z,0.00
2022-08-08T02:15:00.791Z,0.00
2022-08-08T02:16:00.601Z,0.00
2022-08-08T02:17:00.787Z,0.00
2022-08-08T02:18:00.949Z,0.00
2022-08-08T02:19:01.128Z,0.00
2022-08-08T02:20:09.266Z,0.00
2022-08-08T02:21:08.462Z,0.00
2022-08-08T02:22:02.658Z,0.00
2022-08-08T02:23:01.854Z,0.00
2022-08-08T02:24:02.040Z,0.00
2022-08-08T02:25:07.466Z,0.00
2022-08-08T02:26:03.401Z,0.00
2022-08-08T02:27:02.551Z,0.00
2022-08-08T02:28:02.732Z,0.00
2022-08-08T02:29:02.873Z,0.00
2022-08-08T02:30:03.072Z,0.00
2022-08-08T02:31:04.609Z,0.00
2022-08-08T02:32:04.845Z,0.00
2022-08-08T02:33:03.600Z,0.00
2022-08-08T02:34:09.135Z,0.00
2022-08-08T02:35:10.397Z,0.00
2022-08-08T02:36:05.740Z,0.00
2022-08-08T02:37:04.266Z,0.00
2022-08-08T02:38:05.686Z,0.00
2022-08-08T02:39:40.706Z,0.00
2022-08-08T02:40:05.836Z,0.00
2022-08-08T02:41:07.703Z,0.00
2022-08-08T02:42:07.956Z,0.00
2022-08-08T02:44:38.225Z,0.00
2022-08-08T02:44:38.904Z,0.00
2022-08-08T02:45:18.137Z,0.00
2022-08-08T02:46:08.109Z,0.00
2022-08-08T02:47:06.047Z,0.00
2022-08-08T02:48:06.197Z,0.00
2022-08-08T02:49:06.350Z,0.00
2022-08-08T02:50:06.540Z,0.00
2022-08-08T02:51:07.720Z,0.00
2022-08-08T02:52:32.961Z,0.00
2022-08-08T02:53:08.042Z,0.00
2022-08-08T02:54:07.231Z,0.00
2022-08-08T02:55:10.422Z,0.00
2022-08-08T02:56:08.767Z,0.00
2022-08-08T02:57:12.039Z,0.00
2022-08-08T02:58:07.936Z,0.00
2022-08-08T02:59:25.777Z,0.00
2022-08-08T03:00:26.781Z,0.00
2022-08-08T03:01:15.005Z,0.00
2022-08-08T03:02:09.594Z,0.00
2022-08-08T03:03:09.764Z,0.00
2022-08-08T03:05:04.611Z,0.00
2022-08-08T03:05:11.098Z,0.00
2022-08-08T03:06:09.281Z,0.00
2022-08-08T03:07:09.458Z,0.00
2022-08-08T03:08:09.607Z,0.00
2022-08-08T03:09:09.766Z,0.00
2022-08-08T03:10:31.411Z,0.00
2022-08-08T03:11:13.995Z,0.00
2022-08-08T03:12:14.057Z,0.00
2022-08-08T03:13:34.082Z,0.00
2022-08-08T03:15:57.089Z,0.00
2022-08-08T03:16:00.167Z,0.00
2022-08-08T03:16:12.051Z,0.00
2022-08-08T03:17:12.199Z,0.00
2022-08-08T03:18:13.766Z,0.00
2022-08-08T03:19:11.533Z,0.00
2022-08-08T03:20:12.729Z,0.00
2022-08-08T03:21:14.710Z,0.00
2022-08-08T03:22:38.253Z,0.00
2022-08-08T03:23:13.202Z,0.00
2022-08-08T03:24:12.385Z,0.00
2022-08-08T03:25:18.212Z,0.00
2022-08-08T03:26:13.713Z,0.00
2022-08-08T03:27:12.894Z,0.00
2022-08-08T03:28:13.063Z,0.00
2022-08-08T03:29:17.035Z,0.00
2022-08-08T03:30:19.078Z,0.00
2022-08-08T03:31:24.906Z,0.00
2022-08-08T03:32:14.786Z,0.00
2022-08-08T03:33:56.745Z,0.00
2022-08-08T03:34:15.114Z,0.00
2022-08-08T03:35:14.294Z,0.00
2022-08-08T03:36:16.023Z,0.00
2022-08-08T03:37:20.202Z,0.00
2022-08-08T03:38:55.894Z,0.00
2022-08-08T03:39:16.230Z,0.00
2022-08-08T03:40:30.077Z,0.00
2022-08-08T03:42:12.390Z,0.00
2022-08-08T03:42:30.156Z,0.00
2022-08-08T03:43:19.917Z,0.00
2022-08-08T03:44:16.203Z,0.00
2022-08-08T03:46:02.969Z,0.00
2022-08-08T03:46:17.210Z,0.00
2022-08-08T03:47:20.245Z,0.00
2022-08-08T03:48:21.277Z,0.00
2022-08-08T03:49:58.887Z,0.00
2022-08-08T03:50:19.931Z,0.00
2022-08-08T03:51:17.076Z,0.00
2022-08-08T03:52:17.253Z,0.00
2022-08-08T03:53:24.259Z,0.00
2022-08-08T03:54:41.853Z,0.00
2022-08-08T03:55:19.961Z,0.00
2022-08-08T03:56:32.066Z,0.00
2022-08-08T03:58:33.742Z,0.00
2022-08-08T03:58:34.699Z,0.00
2022-08-08T03:59:22.959Z,0.00
2022-08-08T04:00:19.662Z,0.00
2022-08-08T04:01:24.691Z,0.00
2022-08-08T04:02:33.215Z,0.00
2022-08-08T04:03:20.198Z,0.00
2022-08-08T04:04:20.485Z,0.00
2022-08-08T04:05:28.295Z,0.00
2022-08-08T04:06:20.749Z,0.00
2022-08-08T04:07:21.337Z,0.00
2022-08-08T04:08:33.645Z,0.00
2022-08-08T04:09:21.259Z,0.00
2022-08-08T04:10:20.459Z,0.00
2022-08-08T04:11:23.408Z,0.00
2022-08-08T04:12:20.800Z,0.00
2022-08-08T04:13:21.003Z,0.00
2022-08-08T04:14:34.732Z,0.00
2022-08-08T04:15:22.552Z,0.00
2022-08-08T04:16:22.466Z,0.00
2022-08-08T04:17:45.839Z,0.00
2022-08-08T04:18:22.833Z,0.00
2022-08-08T04:19:24.021Z,0.00
2022-08-08T04:20:28.173Z,0.00
2022-08-08T04:21:23.565Z,0.00
2022-08-08T04:22:24.235Z,0.00
2022-08-08T04:23:22.745Z,0.00
2022-08-08T04:24:28.640Z,0.00
2022-08-08T04:25:29.670Z,0.00
2022-08-08T04:26:25.798Z,0.00
2022-08-08T04:28:03.381Z,0.00
2022-08-08T04:28:36.299Z,0.00
2022-08-08T04:29:24.741Z,0.00
2022-08-08T04:30:23.921Z,0.00
2022-08-08T04:31:56.906Z,0.00
2022-08-08T04:32:30.780Z,0.00
2022-08-08T04:33:27.040Z,0.00
2022-08-08T04:34:28.081Z,0.00
2022-08-08T04:35:25.810Z,0.00
2022-08-08T04:36:24.990Z,0.00
2022-08-08T04:37:31.459Z,0.00
2022-08-08T04:38:26.372Z,0.00
2022-08-08T04:40:06.115Z,0.00
2022-08-08T04:40:26.778Z,0.00
2022-08-08T04:41:25.928Z,0.00
2022-08-08T04:42:27.184Z,0.00
2022-08-08T04:43:31.948Z,0.00
2022-08-08T04:44:27.432Z,0.00
2022-08-08T04:45:27.573Z,0.00
2022-08-08T04:46:26.742Z,0.00
2022-08-08T04:47:26.924Z,0.00
2022-08-08T04:48:27.130Z,0.00
2022-08-08T04:49:28.929Z,0.00
2022-08-08T04:50:34.269Z,0.00
2022-08-08T04:51:48.509Z,0.00
2022-08-08T04:52:33.980Z,0.00
2022-08-08T04:54:26.783Z,0.00
2022-08-08T04:54:39.463Z,0.00
2022-08-08T04:55:47.280Z,0.00
2022-08-08T04:56:29.587Z,0.00
2022-08-08T04:57:28.822Z,0.00
2022-08-08T04:58:29.409Z,0.00
2022-08-08T04:59:30.005Z,0.00
2022-08-08T05:00:29.209Z,0.00
2022-08-08T05:01:35.605Z,0.00
2022-08-08T05:02:31.724Z,0.00
2022-08-08T05:04:07.776Z,0.00
2022-08-08T05:04:30.937Z,0.00
2022-08-08T05:05:45.372Z,0.00
2022-08-08T05:06:31.269Z,0.00
2022-08-08T05:07:37.802Z,0.00
2022-08-08T05:08:31.587Z,5.62
2022-08-08T05:09:30.771Z,5.62
2022-08-08T05:10:31.941Z,5.62
2022-08-08T05:11:39.003Z,5.62
2022-08-08T05:12:34.876Z,5.62
2022-08-08T05:13:32.456Z,5.62
2022-08-08T05:14:31.633Z,5.62
2022-08-08T05:16:52.196Z,5.62
2022-08-08T05:16:54.290Z,5.62
2022-08-08T05:17:53.408Z,5.62
2022-08-08T05:18:33.313Z,5.62
2022-08-08T05:20:11.493Z,5.62
2022-08-08T05:20:36.598Z,5.62
2022-08-08T05:21:43.778Z,5.62
2022-08-08T05:22:34.069Z,5.62
2022-08-08T05:23:41.311Z,5.62
2022-08-08T05:24:34.334Z,5.62
2022-08-08T05:25:40.406Z,5.62
2022-08-08T05:26:34.657Z,5.62
2022-08-08T05:27:41.619Z,5.62
2022-08-08T05:28:56.820Z,5.62
2022-08-08T05:29:35.821Z,5.62
2022-08-08T05:30:34.358Z,5.62
2022-08-08T05:32:04.412Z,5.62
2022-08-08T05:32:36.627Z,5.62
2022-08-08T05:33:48.518Z,5.62
2022-08-08T05:34:36.454Z,5.62
2022-08-08T05:35:35.240Z,5.62
2022-08-08T05:36:35.431Z,5.62
2022-08-08T05:37:49.220Z,5.62
2022-08-08T05:38:36.796Z,5.62
2022-08-08T05:39:36.505Z,5.62
2022-08-08T05:40:36.130Z,5.62
2022-08-08T05:41:55.668Z,5.62
2022-08-08T05:42:37.515Z,5.62
2022-08-08T05:44:02.403Z,5.62
2022-08-08T05:44:37.861Z,5.62
2022-08-08T05:45:43.229Z,5.62
2022-08-08T05:46:38.260Z,5.62
2022-08-08T05:47:52.647Z,5.62
2022-08-08T05:48:38.606Z,5.62
2022-08-08T05:49:38.179Z,5.62
2022-08-08T05:50:38.687Z,5.62
2022-08-08T05:51:48.014Z,5.62
2022-08-08T05:52:39.466Z,5.62
2022-08-08T05:54:24.204Z,5.62
2022-08-08T05:54:50.160Z,5.62
2022-08-08T05:56:10.618Z,5.62
2022-08-08T05:56:41.917Z,5.62
2022-08-08T05:58:05.917Z,5.62
2022-08-08T05:58:54.026Z,5.62
2022-08-08T06:00:00.822Z,5.62
2022-08-08T06:00:44.394Z,5.62
2022-08-08T06:01:56.897Z,5.62
2022-08-08T06:02:43.585Z,5.62
2022-08-08T06:03:40.253Z,5.62
2022-08-08T06:04:40.589Z,5.62
2022-08-08T06:05:41.571Z,5.62
2022-08-08T06:06:40.742Z,5.62
2022-08-08T06:07:43.972Z,5.62
2022-08-08T06:08:41.120Z,5.62
2022-08-08T06:09:59.750Z,5.62
2022-08-08T06:10:42.451Z,5.62
2022-08-08T06:11:45.818Z,5.62
2022-08-08T06:12:41.774Z,5.62
2022-08-08T06:13:47.047Z,5.62
2022-08-08T06:14:47.707Z,5.62
2022-08-08T06:15:51.394Z,5.62
2022-08-08T06:16:43.505Z,5.62
2022-08-08T06:17:51.148Z,5.62
2022-08-08T06:18:43.796Z,5.62
2022-08-08T06:19:42.982Z,5.62
2022-08-08T06:20:43.151Z,22.50
2022-08-08T06:21:51.490Z,22.50
2022-08-08T06:22:44.543Z,28.12
2022-08-08T06:23:52.948Z,28.12
2022-08-08T06:24:47.331Z,28.12
2022-08-08T06:26:35.846Z,28.12
2022-08-08T06:26:50.218Z,28.12
2022-08-08T06:27:48.071Z,28.12
2022-08-08T06:28:44.589Z,33.75
2022-08-08T06:29:56.895Z,33.75
2022-08-08T06:30:45.915Z,33.75
2022-08-08T06:31:52.343Z,33.75
2022-08-08T06:32:47.670Z,33.75
2022-08-08T06:34:27.569Z,33.75
2022-08-08T06:34:52.421Z,33.75
2022-08-08T06:36:06.567Z,33.75
2022-08-08T06:36:53.780Z,33.75
2022-08-08T06:37:51.076Z,33.75
2022-08-08T06:38:47.264Z,33.75
2022-08-08T06:39:56.071Z,33.75
2022-08-08T06:40:48.776Z,33.75
2022-08-08T06:41:49.055Z,33.75
2022-08-08T06:42:46.939Z,33.75
2022-08-08T06:43:57.211Z,33.75
2022-08-08T06:44:48.275Z,33.75
2022-08-08T06:45:48.134Z,33.75
2022-08-08T06:46:47.597Z,33.75
2022-08-08T06:47:58.208Z,33.75
2022-08-08T06:48:48.953Z,33.75
2022-08-08T06:49:55.988Z,33.75
2022-08-08T06:50:49.267Z,33.75
2022-08-08T06:51:52.332Z,33.75
2022-08-08T06:52:50.371Z,39.38
2022-08-08T06:53:51.347Z,39.38
2022-08-08T06:54:49.948Z,39.38
2022-08-08T06:56:02.760Z,39.38
2022-08-08T06:56:51.270Z,39.38
2022-08-08T06:57:56.350Z,39.38
2022-08-08T06:58:50.631Z,39.38
2022-08-08T07:00:02.646Z,39.38
2022-08-08T07:00:50.961Z,39.38
2022-08-08T07:02:21.401Z,39.38
2022-08-08T07:02:51.337Z,39.38
2022-08-08T07:04:36.004Z,39.38
2022-08-08T07:04:52.473Z,39.38
2022-08-08T07:06:01.654Z,39.38
2022-08-08T07:06:52.321Z,39.38
2022-08-08T07:07:51.185Z,39.38
2022-08-08T07:08:51.485Z,33.75
2022-08-08T07:09:59.659Z,33.75
2022-08-08T07:10:52.705Z,39.38
2022-08-08T07:11:52.055Z,39.38
2022-08-08T07:12:52.061Z,39.38
2022-08-08T07:14:00.444Z,39.38
2022-08-08T07:14:53.427Z,39.38
2022-08-08T07:16:04.753Z,39.38
2022-08-08T07:16:54.323Z,39.38
2022-08-08T07:18:00.807Z,45.00
2022-08-08T07:18:55.962Z,45.00
2022-08-08T07:19:53.357Z,45.00
2022-08-08T07:20:54.492Z,45.00
2022-08-08T07:21:53.678Z,45.00
2022-08-08T07:22:53.839Z,45.00
2022-08-08T07:24:00.984Z,45.00
2022-08-08T07:24:55.211Z,45.00
2022-08-08T07:25:55.544Z,45.00
2022-08-08T07:26:54.559Z,45.00
2022-08-08T07:28:00.767Z,45.00
2022-08-08T07:28:56.409Z,45.00
2022-08-08T07:30:00.310Z,45.00
2022-08-08T07:30:56.282Z,45.00
2022-08-08T07:31:55.475Z,45.00
2022-08-08T07:32:59.170Z,45.00
2022-08-08T07:33:59.444Z,45.00
2022-08-08T07:35:00.776Z,45.00
2022-08-08T07:35:57.185Z,45.00
2022-08-08T07:36:56.385Z,45.00
2022-08-08T07:38:04.618Z,45.00
2022-08-08T07:38:57.705Z,45.00
2022-08-08T07:39:59.551Z,45.00
2022-08-08T07:40:57.067Z,45.00
2022-08-08T07:42:04.604Z,45.00
2022-08-08T07:42:59.430Z,45.00
2022-08-08T07:43:57.614Z,45.00
2022-08-08T07:44:57.765Z,45.00
2022-08-08T07:46:18.434Z,45.00
2022-08-08T07:46:59.112Z,45.00
2022-08-08T07:47:58.279Z,45.00
2022-08-08T07:48:58.478Z,45.00
2022-08-08T07:49:58.701Z,45.00
2022-08-08T07:50:58.813Z,45.00
2022-08-08T07:51:58.938Z,45.00
2022-08-08T07:52:59.121Z,50.62
2022-08-08T07:54:03.060Z,50.62
2022-08-08T07:54:59.474Z,50.62
2022-08-08T07:55:59.661Z,50.62
2022-08-08T07:56:59.842Z,50.62
2022-08-08T07:58:00.043Z,50.62
2022-08-08T07:59:00.186Z,50.62
2022-08-08T08:00:00.445Z,50.62
2022-08-08T08:01:00.620Z,50.62
2022-08-08T08:02:33.356Z,50.62
2022-08-08T08:03:01.875Z,50.62
2022-08-08T08:04:01.566Z,50.62
2022-08-08T08:05:01.215Z,50.62
2022-08-08T08:06:01.374Z,50.62
2022-08-08T08:07:01.553Z,50.62
2022-08-08T08:08:01.691Z,50.62
2022-08-08T08:09:01.879Z,50.62
2022-08-08T08:10:02.554Z,50.62
2022-08-08T08:11:02.218Z,50.62
2022-08-08T08:12:02.413Z,50.62
2022-08-08T08:13:02.589Z,50.62
2022-08-08T08:14:07.518Z,56.25
2022-08-08T08:15:04.244Z,56.25
2022-08-08T08:16:03.130Z,56.25
2022-08-08T08:17:03.279Z,56.25
2022-08-08T08:18:04.450Z,56.25
2022-08-08T08:19:03.639Z,56.25
2022-08-08T08:20:03.813Z,56.25
2022-08-08T08:21:03.950Z,45.00
2022-08-08T08:22:07.800Z,45.00
2022-08-08T08:23:04.275Z,45.00
2022-08-08T08:24:04.461Z,45.00
2022-08-08T08:25:07.685Z,45.00
2022-08-08T08:26:04.782Z,50.62
2022-08-08T08:27:04.975Z,56.25
2022-08-08T08:28:05.142Z,56.25
2022-08-08T08:29:05.328Z,56.25
2022-08-08T08:30:07.225Z,56.25
2022-08-08T08:31:05.635Z,56.25
2022-08-08T08:32:06.129Z,56.25
2022-08-08T08:33:05.965Z,56.25
2022-08-08T08:34:07.198Z,56.25
2022-08-08T08:35:06.601Z,56.25
2022-08-08T08:36:20.453Z,56.25
2022-08-08T08:37:08.739Z,16.88
2022-08-08T08:38:16.015Z,16.88
2022-08-08T08:39:17.430Z,16.88
2022-08-08T08:40:08.272Z,16.88
2022-08-08T08:41:13.208Z,16.88
2022-08-08T08:42:08.547Z,16.88
2022-08-08T08:43:11.863Z,16.88
2022-08-08T08:44:14.260Z,16.88
2022-08-08T08:45:21.137Z,16.88
2022-08-08T08:46:09.222Z,16.88
2022-08-08T08:47:08.397Z,16.88
2022-08-08T08:48:08.564Z,16.88
2022-08-08T08:49:09.731Z,16.88
2022-08-08T08:50:10.710Z,16.88
2022-08-08T08:51:10.061Z,16.88
2022-08-08T08:52:09.250Z,16.88
2022-08-08T08:53:28.219Z,16.88
2022-08-08T08:54:10.594Z,16.88
2022-08-08T08:55:09.704Z,16.88
2022-08-08T08:56:09.867Z,16.88
2022-08-08T08:57:15.582Z,16.88
2022-08-08T08:58:11.215Z,16.88
2022-08-08T08:59:15.770Z,16.88
2022-08-08T09:00:17.126Z,16.88
2022-08-08T09:01:13.353Z,16.88
2022-08-08T09:02:10.998Z,16.88
2022-08-08T09:03:11.107Z,16.88
2022-08-08T09:04:30.946Z,16.88
2022-08-08T09:05:28.867Z,16.88
2022-08-08T09:06:26.443Z,16.88
2022-08-08T09:07:13.723Z,16.88
2022-08-08T09:08:12.413Z,16.88
2022-08-08T09:09:26.021Z,16.88
2022-08-08T09:10:17.482Z,16.88
2022-08-08T09:11:12.480Z,16.88
2022-08-08T09:12:12.680Z,16.88
2022-08-08T09:13:12.857Z,16.88
2022-08-08T09:14:13.021Z,16.88
2022-08-08T09:15:13.247Z,16.88
2022-08-08T09:16:13.354Z,16.88
2022-08-08T09:17:18.374Z,22.50
2022-08-08T09:18:14.719Z,22.50
2022-08-08T09:19:13.882Z,22.50
2022-08-08T09:21:57.373Z,22.50
2022-08-08T09:22:05.410Z,22.50
2022-08-08T09:22:25.860Z,22.50
2022-08-08T09:23:17.684Z,22.50
2022-08-08T09:24:14.763Z,22.50
2022-08-08T09:25:15.176Z,22.50
2022-08-08T09:26:15.130Z,22.50
2022-08-08T09:27:21.036Z,22.50
2022-08-08T09:28:23.871Z,22.50
2022-08-08T09:29:22.526Z,22.50
2022-08-08T09:30:17.376Z,22.50
2022-08-08T09:31:16.262Z,22.50
2022-08-08T09:32:16.117Z,22.50
2022-08-08T09:33:54.777Z,22.50
2022-08-08T09:34:31.782Z,16.88
2022-08-08T09:35:17.678Z,22.50
2022-08-08T09:36:19.254Z,11.25
2022-08-08T09:37:34.161Z,22.50
2022-08-08T09:38:18.239Z,16.88
2022-08-08T09:39:19.367Z,11.25
2022-08-08T09:40:18.759Z,11.25
2022-08-08T09:41:17.724Z,11.25
2022-08-08T09:42:21.211Z,11.25
2022-08-08T09:43:24.130Z,11.25
2022-08-08T09:44:19.228Z,11.25
2022-08-08T09:45:55.450Z,11.25
2022-08-08T09:46:25.632Z,22.50
2022-08-08T09:47:26.478Z,28.12
2022-08-08T09:48:28.934Z,28.12
2022-08-08T09:49:42.249Z,28.12
2022-08-08T09:50:21.248Z,22.50
2022-08-08T09:51:19.453Z,22.50
2022-08-08T09:53:05.719Z,16.88
2022-08-08T09:53:32.071Z,16.88
2022-08-08T09:54:37.925Z,16.88
2022-08-08T09:55:51.748Z,16.88
2022-08-08T09:56:22.197Z,11.25
2022-08-08T09:57:25.027Z,16.88
2022-08-08T09:58:26.339Z,16.88
2022-08-08T09:59:50.321Z,16.88
2022-08-08T10:00:37.719Z,33.75
2022-08-08T10:01:59.245Z,22.50
2022-08-08T10:02:23.426Z,22.50
2022-08-08T10:03:21.573Z,33.75
2022-08-08T10:04:38.278Z,33.75
2022-08-08T10:05:25.535Z,33.75
2022-08-08T10:06:29.414Z,33.75
2022-08-08T10:07:23.251Z,33.75
2022-08-08T10:08:22.440Z,33.75
2022-08-08T10:09:22.603Z,33.75
2022-08-08T10:10:22.769Z,33.75
2022-08-08T10:12:27.135Z,33.75
2022-08-08T10:12:31.036Z,33.75
2022-08-08T10:13:29.885Z,33.75
2022-08-08T10:14:34.943Z,33.75
2022-08-08T10:15:25.171Z,28.12
2022-08-08T10:16:23.802Z,28.12
2022-08-08T10:17:57.402Z,22.50
2022-08-08T10:18:25.718Z,28.12
2022-08-08T10:19:24.306Z,11.25
2022-08-08T10:20:40.198Z,11.25
2022-08-08T10:21:32.741Z,11.25
2022-08-08T10:22:25.843Z,28.12
2022-08-08T10:23:41.387Z,28.12
2022-08-08T10:24:28.816Z,33.75
2022-08-08T10:25:25.349Z,33.75
2022-08-08T10:26:30.850Z,33.75
2022-08-08T10:27:26.673Z,33.75
2022-08-08T10:28:25.890Z,33.75
2022-08-08T10:29:30.232Z,33.75
2022-08-08T10:30:57.105Z,33.75
2022-08-08T10:31:46.876Z,22.50
2022-08-08T10:32:27.560Z,16.88
2022-08-08T10:33:38.319Z,28.12
2022-08-08T10:34:28.778Z,33.75
2022-08-08T10:36:09.584Z,16.88
2022-08-08T10:36:30.941Z,28.12
2022-08-08T10:37:27.719Z,28.12
2022-08-08T10:38:27.582Z,28.12
2022-08-08T10:39:43.110Z,16.88
2022-08-08T10:40:32.211Z,16.88
2022-08-08T10:41:35.463Z,16.88
2022-08-08T10:42:29.469Z,16.88
2022-08-08T10:43:32.188Z,28.12
2022-08-08T10:44:29.606Z,39.38
2022-08-08T10:45:28.751Z,39.38
2022-08-08T10:46:30.784Z,39.38
2022-08-08T10:47:43.249Z,33.75
2022-08-08T10:48:30.258Z,28.12
2022-08-08T10:50:01.949Z,16.88
2022-08-08T10:50:30.818Z,33.75
2022-08-08T10:51:31.187Z,39.38
2022-08-08T10:52:31.154Z,39.38
2022-08-08T10:53:56.731Z,45.00
2022-08-08T10:54:31.289Z,45.00
2022-08-08T10:55:39.566Z,45.00
2022-08-08T10:56:34.475Z,45.00
2022-08-08T10:57:44.957Z,45.00
2022-08-08T10:58:31.935Z,45.00
2022-08-08T10:59:31.411Z,50.62
2022-08-08T11:00:32.289Z,50.62
2022-08-08T11:01:33.521Z,56.25
2022-08-08T11:02:31.984Z,56.25
2022-08-08T11:03:52.280Z,67.50
2022-08-08T11:04:39.178Z,90.00
2022-08-08T11:05:38.386Z,129.38
2022-08-08T11:06:34.343Z,151.88
2022-08-08T11:08:30.079Z,157.50
2022-08-08T11:08:40.935Z,151.88
2022-08-08T11:09:33.836Z,135.00
2022-08-08T11:10:32.995Z,106.88
2022-08-08T11:12:05.322Z,78.75
2022-08-08T11:12:38.464Z,61.88
2022-08-08T11:13:33.845Z,50.62
2022-08-08T11:14:33.639Z,45.00
2022-08-08T11:15:33.829Z,45.00
2022-08-08T11:16:34.404Z,45.00
2022-08-08T11:17:59.386Z,45.00
2022-08-08T11:18:35.339Z,50.62
2022-08-08T11:19:34.530Z,140.62
2022-08-08T11:20:34.707Z,135.00
2022-08-08T11:21:37.645Z,50.62
2022-08-08T11:22:35.070Z,50.62
2022-08-08T11:23:35.262Z,50.62
2022-08-08T11:24:35.872Z,50.62
2022-08-08T11:25:52.029Z,50.62
2022-08-08T11:26:38.308Z,50.62
2022-08-08T11:27:37.510Z,56.25
2022-08-08T11:28:38.508Z,56.25
2022-08-08T11:29:50.684Z,61.88
2022-08-08T11:30:40.837Z,56.25
2022-08-08T11:31:39.607Z,22.50
2022-08-08T11:32:37.849Z,16.88
2022-08-08T11:33:52.471Z,22.50
2022-08-08T11:34:52.437Z,22.50
2022-08-08T11:35:43.359Z,22.50
2022-08-08T11:36:38.515Z,22.50
2022-08-08T11:38:39.149Z,22.50
2022-08-08T11:38:54.016Z,22.50
2022-08-08T11:39:39.552Z,22.50
2022-08-08T11:40:38.177Z,22.50
2022-08-08T11:41:38.358Z,22.50
2022-08-08T11:42:38.569Z,16.88
2022-08-08T11:43:41.792Z,16.88
2022-08-08T11:44:38.906Z,22.50
2022-08-08T11:46:06.823Z,22.50
2022-08-08T11:46:40.250Z,22.50
2022-08-08T11:48:02.452Z,22.50
2022-08-08T11:48:40.580Z,22.50
2022-08-08T11:49:39.771Z,22.50
2022-08-08T11:50:39.930Z,22.50
2022-08-08T11:51:50.197Z,22.50
2022-08-08T11:52:47.304Z,22.50
2022-08-08T11:53:42.814Z,50.62
2022-08-08T11:54:46.270Z,84.38
2022-08-08T11:55:41.783Z,78.75
2022-08-08T11:56:42.420Z,73.12
2022-08-08T11:57:41.115Z,78.75
2022-08-08T11:58:41.266Z,78.75
2022-08-08T12:00:00.455Z,78.75
2022-08-08T12:00:42.615Z,67.50
2022-08-08T12:01:41.786Z,39.38
2022-08-08T12:02:42.148Z,45.00
2022-08-08T12:03:42.221Z,39.38
2022-08-08T12:04:42.337Z,39.38
2022-08-08T12:05:42.507Z,56.25
2022-08-08T12:06:43.032Z,78.75
2022-08-08T12:07:42.877Z,78.75
2022-08-08T12:08:43.038Z,78.75
2022-08-08T12:09:59.751Z,78.75
2022-08-08T12:10:47.525Z,78.75
2022-08-08T12:11:43.540Z,78.75
2022-08-08T12:12:48.064Z,56.25
2022-08-08T12:14:03.702Z,61.88
2022-08-08T12:14:45.056Z,73.12
2022-08-08T12:15:47.357Z,78.75
2022-08-08T12:16:47.335Z,73.12
2022-08-08T12:17:51.325Z,73.12
2022-08-08T12:18:45.750Z,67.50
2022-08-08T12:19:51.797Z,73.12
2022-08-08T12:20:46.436Z,73.12
2022-08-08T12:21:59.149Z,78.75
2022-08-08T12:22:46.476Z,78.75
2022-08-08T12:23:58.307Z,50.62
2022-08-08T12:24:51.353Z,28.12
2022-08-08T12:25:52.705Z,45.00
2022-08-08T12:26:47.202Z,61.88
2022-08-08T12:27:47.876Z,56.25
2022-08-08T12:28:46.497Z,56.25
2022-08-08T12:29:46.655Z,73.12
2022-08-08T12:30:50.185Z,73.12
2022-08-08T12:31:53.592Z,73.12
2022-08-08T12:32:48.210Z,78.75
2022-08-08T12:34:02.722Z,78.75
2022-08-08T12:34:48.909Z,78.75
2022-08-08T12:35:52.428Z,84.38
2022-08-08T12:36:49.249Z,78.75
2022-08-08T12:38:02.249Z,78.75
2022-08-08T12:38:49.260Z,78.75
2022-08-08T12:40:02.175Z,67.50
2022-08-08T12:40:57.139Z,45.00
2022-08-08T12:41:57.052Z,45.00
2022-08-08T12:42:49.973Z,50.62
2022-08-08T12:44:00.489Z,50.62
2022-08-08T12:44:50.549Z,50.62
2022-08-08T12:45:59.782Z,50.62
2022-08-08T12:46:50.673Z,50.62
2022-08-08T12:48:04.877Z,50.62
2022-08-08T12:49:18.996Z,50.62
2022-08-08T12:49:51.225Z,50.62
2022-08-08T12:50:50.408Z,50.62
2022-08-08T12:51:59.234Z,50.62
2022-08-08T12:52:51.760Z,50.62
2022-08-08T12:53:50.935Z,50.62
2022-08-08T12:54:51.121Z,50.62
2022-08-08T12:56:08.617Z,50.62
2022-08-08T12:56:52.461Z,50.62
2022-08-08T12:57:56.914Z,50.62
2022-08-08T12:58:53.911Z,50.62
2022-08-08T13:00:05.717Z,50.62
2022-08-08T13:00:53.166Z,50.62
2022-08-08T13:01:52.376Z,56.25
2022-08-08T13:02:53.310Z,56.25
2022-08-08T13:03:53.679Z,56.25
2022-08-08T13:04:52.903Z,56.25
2022-08-08T13:06:05.757Z,56.25